Time;durP1;ratioP1;P1;durP2;ratioP2;P2;SDS_P1;SDS_P2;PMS_P1;PMS_P2;Temp;Humidity;BMP_temperature;BMP_pressure;BME280_temperature;BME280_humidity;BME280_pressure;Samples;Min_cycle;Max_cycle;Signal;HPM_P1;HPM_P2
2021/09/15 00:01:34;;;;;;;1.05;1.05;;;;;;;;;;5066607;28;20510;-53
2021/09/15 00:04:01;;;;;;;1.25;1.15;;;;;;;;;;5066004;28;20483;-55
2021/09/15 00:06:27;;;;;;;1.35;1.20;;;;;;;;;;5066346;28;20099;-55
2021/09/15 00:08:53;;;;;;;1.20;1.10;;;;;;;;;;5067337;28;20024;-55
2021/09/15 00:11:19;;;;;;;3.28;1.10;;;;;;;;;;5086191;28;20038;-56
2021/09/15 00:13:46;;;;;;;1.63;0.90;;;;;;;;;;5086303;28;20016;-55
2021/09/15 00:16:12;;;;;;;0.85;0.70;;;;;;;;;;5086687;28;20028;-56
2021/09/15 00:18:38;;;;;;;1.08;0.80;;;;;;;;;;5084451;28;20031;-56
2021/09/15 00:21:05;;;;;;;0.90;0.90;;;;;;;;;;5085925;28;20521;-55
2021/09/15 00:23:31;;;;;;;0.77;0.77;;;;;;;;;;5086179;28;20110;-54
2021/09/15 00:25:57;;;;;;;1.30;1.10;;;;;;;;;;5085937;28;20107;-55
2021/09/15 00:28:23;;;;;;;1.45;1.30;;;;;;;;;;5084578;28;20024;-54
2021/09/15 00:30:49;;;;;;;1.50;1.40;;;;;;;;;;5086102;28;20134;-54
2021/09/15 00:33:15;;;;;;;1.50;1.40;;;;;;;;;;5084723;28;20016;-56
2021/09/15 00:35:41;;;;;;;2.75;1.40;;;;;;;;;;5086145;28;20025;-54
2021/09/15 00:38:07;;;;;;;1.60;1.38;;;;;;;;;;5067150;28;20540;-55
2021/09/15 00:40:33;;;;;;;1.48;1.38;;;;;;;;;;5086012;28;20424;-55
2021/09/15 00:42:59;;;;;;;1.83;1.70;;;;;;;;;;5086020;28;20040;-52
2021/09/15 00:45:26;;;;;;;1.30;1.20;;;;;;;;;;5086119;28;20035;-56
2021/09/15 00:47:52;;;;;;;2.17;1.40;;;;;;;;;;5086015;28;20020;-54
2021/09/15 00:50:18;;;;;;;1.85;1.42;;;;;;;;;;5085224;28;20085;-55
2021/09/15 00:52:44;;;;;;;2.25;1.77;;;;;;;;;;5086423;28;20024;-55
2021/09/15 00:55:11;;;;;;;2.28;1.33;;;;;;;;;;5080001;28;20021;-54
2021/09/15 00:57:37;;;;;;;1.52;1.40;;;;;;;;;;5065940;28;20024;-55
2021/09/15 01:00:03;;;;;;;1.63;1.38;;;;;;;;;;5065579;28;20035;-55
2021/09/15 01:02:29;;;;;;;2.88;1.40;;;;;;;;;;5065597;28;20024;-55
2021/09/15 01:04:55;;;;;;;1.33;1.23;;;;;;;;;;5065704;28;20029;-55
2021/09/15 01:07:22;;;;;;;1.40;1.30;;;;;;;;;;5065408;28;20474;-55
2021/09/15 01:09:49;;;;;;;1.60;1.50;;;;;;;;;;5066225;28;20451;-55
2021/09/15 01:12:15;;;;;;;1.30;1.20;;;;;;;;;;5068656;28;20418;-56
2021/09/15 01:14:41;;;;;;;1.10;1.10;;;;;;;;;;5069698;28;20017;-56
2021/09/15 01:17:08;;;;;;;0.93;0.93;;;;;;;;;;5068925;28;20108;-56
2021/09/15 01:19:34;;;;;;;1.27;1.00;;;;;;;;;;5069725;28;20032;-55
2021/09/15 01:22:01;;;;;;;0.90;0.90;;;;;;;;;;5070042;28;20103;-56
2021/09/15 01:24:29;;;;;;;1.00;0.90;;;;;;;;;;5070509;28;20403;-56
2021/09/15 01:26:56;;;;;;;0.90;0.90;;;;;;;;;;5070163;28;20044;-55
2021/09/15 01:29:29;;;;;;;1.20;1.08;;;;;;;;;;5084626;28;20447;-56
2021/09/15 01:31:56;;;;;;;1.10;0.90;;;;;;;;;;5089131;28;20164;-56
2021/09/15 01:34:23;;;;;;;0.77;0.77;;;;;;;;;;5090565;28;20052;-56
2021/09/15 01:36:49;;;;;;;1.10;1.00;;;;;;;;;;5090437;28;20390;-55
2021/09/15 01:39:15;;;;;;;0.80;0.80;;;;;;;;;;5089809;28;20042;-56
2021/09/15 01:41:41;;;;;;;0.85;0.80;;;;;;;;;;5089464;28;20024;-56
2021/09/15 01:44:07;;;;;;;0.70;0.70;;;;;;;;;;5088999;28;20035;-56
2021/09/15 01:46:33;;;;;;;0.80;0.80;;;;;;;;;;5089234;28;20037;-56
2021/09/15 01:48:59;;;;;;;1.30;1.20;;;;;;;;;;5088642;28;20392;-55
2021/09/15 01:51:25;;;;;;;0.93;0.90;;;;;;;;;;5088019;28;20510;-56
2021/09/15 01:53:51;;;;;;;0.77;0.77;;;;;;;;;;5088814;28;20031;-57
2021/09/15 01:56:17;;;;;;;0.93;0.82;;;;;;;;;;5088356;28;20012;-57
2021/09/15 01:58:44;;;;;;;0.90;0.90;;;;;;;;;;5089198;28;20024;-57
2021/09/15 02:01:10;;;;;;;1.00;0.88;;;;;;;;;;5088706;28;20085;-57
2021/09/15 02:03:36;;;;;;;0.93;0.90;;;;;;;;;;5070266;28;20032;-57
2021/09/15 02:06:02;;;;;;;1.08;0.98;;;;;;;;;;5088602;28;20437;-57
2021/09/15 02:08:28;;;;;;;0.80;0.80;;;;;;;;;;5076315;28;20545;-57
2021/09/15 02:10:54;;;;;;;0.80;0.80;;;;;;;;;;5071477;28;20501;-57
2021/09/15 02:13:20;;;;;;;1.10;1.10;;;;;;;;;;5088228;28;20982;-57
2021/09/15 02:15:46;;;;;;;1.20;1.10;;;;;;;;;;5088258;28;20111;-58
2021/09/15 02:18:12;;;;;;;1.48;1.15;;;;;;;;;;5088696;28;20028;-58
2021/09/15 02:20:39;;;;;;;1.15;1.05;;;;;;;;;;5088442;28;20020;-57
2021/09/15 02:23:05;;;;;;;1.20;1.10;;;;;;;;;;5086636;28;20032;-58
2021/09/15 02:25:31;;;;;;;1.33;1.02;;;;;;;;;;5087605;28;20050;-57
2021/09/15 02:27:57;;;;;;;1.17;1.08;;;;;;;;;;5085956;28;20514;-58
2021/09/15 02:30:23;;;;;;;1.10;1.00;;;;;;;;;;5087539;28;20024;-57
2021/09/15 02:32:49;;;;;;;1.15;1.00;;;;;;;;;;5087444;28;20540;-57
2021/09/15 02:35:15;;;;;;;1.02;0.90;;;;;;;;;;5087935;28;20383;-57
2021/09/15 02:37:41;;;;;;;0.80;0.80;;;;;;;;;;5087562;28;20039;-57
2021/09/15 02:40:08;;;;;;;1.00;1.00;;;;;;;;;;5087585;28;20028;-57
2021/09/15 02:42:34;;;;;;;1.13;1.02;;;;;;;;;;5087839;28;20053;-57
2021/09/15 02:45:00;;;;;;;1.27;1.17;;;;;;;;;;5087775;28;20549;-57
2021/09/15 02:47:26;;;;;;;1.23;1.13;;;;;;;;;;5069591;28;20034;-58
2021/09/15 02:49:52;;;;;;;1.40;1.30;;;;;;;;;;5087241;28;20488;-58
2021/09/15 02:52:18;;;;;;;1.88;1.10;;;;;;;;;;5087108;28;20031;-58
2021/09/15 02:54:44;;;;;;;0.98;0.98;;;;;;;;;;5074489;28;20083;-58
2021/09/15 02:57:10;;;;;;;1.20;1.10;;;;;;;;;;5068714;28;20020;-58
2021/09/15 02:59:36;;;;;;;1.30;1.20;;;;;;;;;;5067249;28;20024;-58
2021/09/15 03:02:02;;;;;;;1.30;1.20;;;;;;;;;;5067033;28;20047;-58
2021/09/15 03:04:28;;;;;;;1.13;1.00;;;;;;;;;;5067363;28;20024;-58
2021/09/15 03:06:54;;;;;;;1.20;1.10;;;;;;;;;;5065964;28;20717;-57
2021/09/15 03:09:20;;;;;;;1.73;1.20;;;;;;;;;;5086227;28;20040;-57
2021/09/15 03:11:47;;;;;;;1.70;1.35;;;;;;;;;;5086672;28;20062;-57
2021/09/15 03:14:13;;;;;;;1.30;1.20;;;;;;;;;;5074397;28;20098;-57
2021/09/15 03:16:39;;;;;;;2.17;1.30;;;;;;;;;;5065941;28;20025;-57
2021/09/15 03:19:05;;;;;;;1.20;1.10;;;;;;;;;;5066939;28;20063;-57
2021/09/15 03:21:31;;;;;;;1.20;1.10;;;;;;;;;;5066566;28;20519;-57
2021/09/15 03:23:57;;;;;;;1.20;1.10;;;;;;;;;;5066698;28;20450;-57
2021/09/15 03:26:23;;;;;;;1.33;1.23;;;;;;;;;;5066908;28;20055;-56
2021/09/15 03:28:49;;;;;;;1.30;1.20;;;;;;;;;;5066636;28;20032;-57
2021/09/15 03:31:15;;;;;;;1.50;1.33;;;;;;;;;;5066909;28;20399;-57
2021/09/15 03:33:41;;;;;;;1.17;1.08;;;;;;;;;;5066588;28;20065;-57
2021/09/15 03:36:07;;;;;;;1.30;1.20;;;;;;;;;;5066314;28;20402;-57
2021/09/15 03:38:33;;;;;;;1.40;1.30;;;;;;;;;;5066722;28;20029;-57
2021/09/15 03:40:59;;;;;;;1.48;1.38;;;;;;;;;;5066363;28;20123;-56
2021/09/15 03:43:26;;;;;;;1.85;1.35;;;;;;;;;;5066379;28;20036;-56
2021/09/15 03:45:52;;;;;;;1.35;1.25;;;;;;;;;;5066671;28;20450;-55
2021/09/15 03:48:18;;;;;;;1.70;1.60;;;;;;;;;;5066821;28;20029;-56
2021/09/15 03:50:44;;;;;;;1.40;1.30;;;;;;;;;;5066315;28;20580;-55
2021/09/15 03:53:10;;;;;;;1.27;1.17;;;;;;;;;;5066314;28;20494;-56
2021/09/15 03:55:36;;;;;;;1.50;1.40;;;;;;;;;;5066412;28;20066;-55
2021/09/15 03:58:02;;;;;;;1.40;1.30;;;;;;;;;;5048129;28;20138;-56
2021/09/15 04:00:28;;;;;;;1.42;1.30;;;;;;;;;;5066644;28;20516;-56
2021/09/15 04:02:54;;;;;;;1.63;1.52;;;;;;;;;;5066156;28;20043;-56
2021/09/15 04:05:20;;;;;;;1.60;1.50;;;;;;;;;;5078569;28;20386;-57
2021/09/15 04:07:46;;;;;;;1.08;1.08;;;;;;;;;;5086390;28;20074;-56
2021/09/15 04:10:12;;;;;;;1.65;1.45;;;;;;;;;;5086332;28;20021;-56
2021/09/15 04:12:39;;;;;;;1.58;1.48;;;;;;;;;;5086261;28;20610;-57
2021/09/15 04:15:06;;;;;;;1.40;1.30;;;;;;;;;;5085484;28;20507;-57
2021/09/15 04:17:33;;;;;;;1.60;1.50;;;;;;;;;;5086347;28;20062;-58
2021/09/15 04:19:59;;;;;;;1.40;1.25;;;;;;;;;;5085953;28;20028;-57
2021/09/15 04:22:25;;;;;;;1.55;1.42;;;;;;;;;;5086695;28;20031;-56
2021/09/15 04:33:15;;;;;;;2.17;1.48;;;;;;;;;;5086261;28;20063;-57
2021/09/15 04:35:42;;;;;;;2.63;1.55;;;;;;;;;;5086880;28;20048;-57
2021/09/15 04:38:08;;;;;;;1.50;1.40;;;;;;;;;;5082179;28;20060;-56
2021/09/15 04:40:34;;;;;;;1.73;1.50;;;;;;;;;;5065220;28;20032;-56
2021/09/15 04:43:00;;;;;;;1.45;1.35;;;;;;;;;;5084674;28;20036;-57
2021/09/15 04:45:26;;;;;;;1.73;1.50;;;;;;;;;;5088300;28;20441;-57
2021/09/15 04:47:52;;;;;;;2.85;1.63;;;;;;;;;;5071296;28;20498;-57
2021/09/15 04:50:18;;;;;;;1.88;1.77;;;;;;;;;;5089550;28;20024;-57
2021/09/15 04:52:44;;;;;;;1.90;1.60;;;;;;;;;;5090641;28;20436;-57
2021/09/15 04:55:11;;;;;;;1.60;1.50;;;;;;;;;;5090383;28;20024;-57
2021/09/15 04:57:37;;;;;;;1.75;1.40;;;;;;;;;;5090136;28;20048;-57
2021/09/15 05:00:03;;;;;;;1.38;1.27;;;;;;;;;;5090083;28;20089;-57
2021/09/15 05:02:29;;;;;;;1.75;1.60;;;;;;;;;;5089649;28;20449;-57
2021/09/15 05:04:55;;;;;;;1.55;1.45;;;;;;;;;;5089496;28;20043;-57
2021/09/15 05:07:21;;;;;;;1.70;1.60;;;;;;;;;;5089897;28;20028;-56
2021/09/15 05:09:47;;;;;;;1.60;1.50;;;;;;;;;;5089635;28;20483;-56
2021/09/15 05:12:13;;;;;;;1.60;1.50;;;;;;;;;;5090024;28;20403;-55
2021/09/15 05:14:39;;;;;;;1.60;1.33;;;;;;;;;;5089757;28;20105;-55
2021/09/15 05:17:05;;;;;;;1.60;1.45;;;;;;;;;;5089429;28;20675;-55
2021/09/15 05:19:32;;;;;;;1.15;1.13;;;;;;;;;;5089410;28;20028;-55
2021/09/15 05:21:58;;;;;;;1.95;1.83;;;;;;;;;;5089124;28;20081;-55
2021/09/15 05:24:24;;;;;;;2.17;1.50;;;;;;;;;;5089661;28;20516;-55
2021/09/15 05:26:50;;;;;;;1.40;1.30;;;;;;;;;;5083794;28;20039;-54
2021/09/15 05:29:16;;;;;;;1.35;1.25;;;;;;;;;;5068876;28;20548;-56
2021/09/15 05:31:42;;;;;;;1.42;1.33;;;;;;;;;;5069343;28;20025;-56
2021/09/15 05:34:08;;;;;;;1.67;1.40;;;;;;;;;;5077406;28;20020;-57
2021/09/15 05:36:34;;;;;;;1.50;1.40;;;;;;;;;;5068918;28;20912;-57
2021/09/15 05:39:00;;;;;;;1.65;1.55;;;;;;;;;;5068569;28;20472;-57
2021/09/15 05:41:26;;;;;;;1.50;1.40;;;;;;;;;;5075398;28;20360;-57
2021/09/15 05:43:52;;;;;;;1.90;1.80;;;;;;;;;;5070423;28;20411;-57
2021/09/15 05:46:19;;;;;;;1.52;1.40;;;;;;;;;;5067472;28;20476;-58
2021/09/15 05:48:45;;;;;;;2.30;1.90;;;;;;;;;;5085834;28;20040;-56
2021/09/15 05:51:11;;;;;;;2.55;1.27;;;;;;;;;;5067749;28;20029;-57
2021/09/15 05:53:37;;;;;;;1.67;1.58;;;;;;;;;;5066416;28;20093;-57
2021/09/15 05:56:03;;;;;;;1.90;1.60;;;;;;;;;;5067860;28;20028;-58
2021/09/15 05:58:30;;;;;;;1.50;1.40;;;;;;;;;;5066774;28;20029;-57
2021/09/15 06:00:56;;;;;;;2.08;1.80;;;;;;;;;;5068554;28;20624;-57
2021/09/15 06:03:22;;;;;;;1.70;1.60;;;;;;;;;;5068050;28;20024;-58
2021/09/15 06:05:48;;;;;;;1.98;1.70;;;;;;;;;;5067888;28;20530;-58
2021/09/15 06:08:14;;;;;;;1.98;1.85;;;;;;;;;;5069669;28;20133;-58
2021/09/15 06:10:40;;;;;;;1.73;1.63;;;;;;;;;;5074702;28;20024;-58
2021/09/15 06:13:06;;;;;;;1.70;1.60;;;;;;;;;;5062716;28;20020;-57
2021/09/15 06:15:32;;;;;;;1.75;1.65;;;;;;;;;;5031733;28;20407;-58
2021/09/15 06:17:58;;;;;;;2.20;1.63;;;;;;;;;;5066702;28;20426;-58
2021/09/15 06:20:24;;;;;;;1.70;1.48;;;;;;;;;;5087823;28;20747;-58
2021/09/15 06:22:50;;;;;;;2.10;1.60;;;;;;;;;;5077635;28;20017;-58
2021/09/15 06:25:16;;;;;;;1.63;1.52;;;;;;;;;;5068119;28;20468;-58
2021/09/15 06:27:42;;;;;;;1.65;1.55;;;;;;;;;;5063491;28;20029;-57
2021/09/15 06:30:09;;;;;;;1.88;1.55;;;;;;;;;;5066915;28;20064;-57
2021/09/15 06:32:36;;;;;;;2.00;1.80;;;;;;;;;;5065678;28;20029;-58
2021/09/15 06:35:04;;;;;;;2.40;1.67;;;;;;;;;;5066801;28;20039;-57
2021/09/15 06:37:30;;;;;;;1.75;1.65;;;;;;;;;;5067251;28;20020;-57
2021/09/15 06:39:57;;;;;;;1.92;1.70;;;;;;;;;;5049105;28;20426;-57
2021/09/15 06:42:23;;;;;;;1.83;1.70;;;;;;;;;;5048968;28;20063;-58
2021/09/15 06:44:49;;;;;;;2.45;1.83;;;;;;;;;;5053392;28;20029;-57
2021/09/15 06:47:15;;;;;;;2.28;2.08;;;;;;;;;;5064502;28;20053;-58
2021/09/15 06:49:41;;;;;;;2.20;1.83;;;;;;;;;;5060564;28;20087;-58
2021/09/15 06:52:07;;;;;;;1.77;1.65;;;;;;;;;;5054719;28;20052;-58
2021/09/15 06:54:33;;;;;;;1.75;1.65;;;;;;;;;;5080226;28;20421;-58
2021/09/15 06:56:59;;;;;;;2.05;1.85;;;;;;;;;;5061111;28;20024;-58
2021/09/15 06:59:26;;;;;;;1.80;1.70;;;;;;;;;;5064100;28;20418;-58
2021/09/15 07:01:52;;;;;;;2.00;1.90;;;;;;;;;;5047331;28;20035;-58
2021/09/15 07:04:18;;;;;;;1.83;1.52;;;;;;;;;;5055935;28;20491;-58
2021/09/15 07:06:44;;;;;;;3.28;1.70;;;;;;;;;;5046960;28;20443;-58
2021/09/15 07:09:10;;;;;;;1.73;1.63;;;;;;;;;;5061553;28;20391;-58
2021/09/15 07:11:37;;;;;;;1.75;1.65;;;;;;;;;;5042520;28;20131;-58
2021/09/15 07:14:03;;;;;;;2.17;1.85;;;;;;;;;;5071117;28;20038;-58
2021/09/15 07:16:30;;;;;;;1.70;1.60;;;;;;;;;;5083446;28;20073;-58
2021/09/15 07:18:56;;;;;;;2.28;1.80;;;;;;;;;;5076123;28;20024;-58
2021/09/15 07:21:22;;;;;;;2.45;2.17;;;;;;;;;;5076114;28;20028;-58
2021/09/15 07:23:48;;;;;;;2.30;2.05;;;;;;;;;;5070459;28;20021;-58
2021/09/15 07:26:15;;;;;;;2.40;2.20;;;;;;;;;;5082228;28;20470;-58
2021/09/15 07:28:42;;;;;;;3.42;2.85;;;;;;;;;;5069995;28;20414;-57
2021/09/15 07:31:08;;;;;;;2.40;2.20;;;;;;;;;;5064361;28;20111;-58
2021/09/15 07:33:34;;;;;;;3.13;2.13;;;;;;;;;;5064586;28;20100;-58
2021/09/15 07:36:01;;;;;;;2.15;2.00;;;;;;;;;;5046608;28;20066;-58
2021/09/15 07:38:27;;;;;;;2.60;1.98;;;;;;;;;;5046860;28;20021;-57
2021/09/15 07:40:54;;;;;;;2.53;1.95;;;;;;;;;;5064463;28;20036;-56
2021/09/15 07:43:20;;;;;;;2.05;1.85;;;;;;;;;;5047318;28;20036;-57
2021/09/15 07:45:46;;;;;;;2.65;1.80;;;;;;;;;;5065551;28;20032;-58
2021/09/15 07:48:12;;;;;;;2.45;1.50;;;;;;;;;;5063982;28;20656;-58
2021/09/15 07:50:38;;;;;;;1.60;1.50;;;;;;;;;;5061183;28;20038;-58
2021/09/15 07:53:05;;;;;;;1.40;1.30;;;;;;;;;;5043422;28;20021;-58
2021/09/15 07:55:32;;;;;;;1.95;1.50;;;;;;;;;;5044999;28;20407;-58
2021/09/15 07:57:59;;;;;;;1.50;1.40;;;;;;;;;;5064544;28;20479;-58
2021/09/15 08:00:25;;;;;;;1.40;1.30;;;;;;;;;;5064905;28;20035;-58
2021/09/15 08:02:51;;;;;;;1.45;1.35;;;;;;;;;;5045792;28;20103;-58
2021/09/15 08:05:18;;;;;;;1.40;1.30;;;;;;;;;;5064509;28;20495;-58
2021/09/15 08:07:44;;;;;;;1.48;1.38;;;;;;;;;;5064444;28;20343;-57
2021/09/15 08:10:10;;;;;;;1.70;1.60;;;;;;;;;;5064000;28;20111;-57
2021/09/15 08:12:37;;;;;;;1.95;1.75;;;;;;;;;;5064542;28;20028;-57
2021/09/15 08:15:03;;;;;;;1.40;1.30;;;;;;;;;;5063071;28;20518;-57
2021/09/15 08:17:29;;;;;;;1.48;1.30;;;;;;;;;;5076007;28;20042;-57
2021/09/15 08:19:55;;;;;;;1.17;1.08;;;;;;;;;;5084831;28;20036;-57
2021/09/15 08:22:22;;;;;;;1.38;1.27;;;;;;;;;;5069223;28;20027;-57
2021/09/15 08:24:48;;;;;;;1.60;1.25;;;;;;;;;;5066202;28;20410;-57
2021/09/15 08:27:14;;;;;;;0.93;0.93;;;;;;;;;;5049286;28;20547;-57
2021/09/15 08:29:40;;;;;;;1.05;1.05;;;;;;;;;;5055154;28;20060;-57
2021/09/15 08:32:07;;;;;;;1.20;1.10;;;;;;;;;;5068589;28;20056;-58
2021/09/15 08:34:33;;;;;;;1.50;1.23;;;;;;;;;;5069270;28;20105;-57
2021/09/15 08:36:59;;;;;;;1.00;1.00;;;;;;;;;;5068454;28;20488;-57
2021/09/15 08:39:25;;;;;;;2.83;0.90;;;;;;;;;;5068674;28;20095;-56
2021/09/15 08:41:53;;;;;;;1.77;1.23;;;;;;;;;;5068249;28;20050;-57
2021/09/15 08:44:19;;;;;;;1.30;1.20;;;;;;;;;;5068196;28;20560;-56
2021/09/15 08:46:45;;;;;;;1.23;1.13;;;;;;;;;;5056503;28;20083;-57
2021/09/15 08:49:12;;;;;;;1.00;1.00;;;;;;;;;;5049682;28;20036;-57
2021/09/15 08:51:38;;;;;;;1.40;1.30;;;;;;;;;;5078840;28;20032;-57
2021/09/15 08:54:04;;;;;;;1.40;1.30;;;;;;;;;;5092352;28;20434;-56
2021/09/15 08:56:31;;;;;;;2.22;1.65;;;;;;;;;;5090535;28;20035;-57
2021/09/15 08:58:57;;;;;;;1.60;1.50;;;;;;;;;;5089203;28;20024;-56
2021/09/15 09:01:24;;;;;;;2.65;1.90;;;;;;;;;;5083199;28;20530;-57
2021/09/15 09:03:56;;;;;;;2.78;1.80;;;;;;;;;;5073176;28;20336;-55
2021/09/15 09:06:23;;;;;;;1.67;1.58;;;;;;;;;;5068861;28;20037;-57
2021/09/15 09:08:53;;;;;;;2.05;1.85;;;;;;;;;;5059269;28;20028;-57
2021/09/15 09:11:21;;;;;;;1.80;1.70;;;;;;;;;;5051035;28;20036;-57
2021/09/15 09:13:51;;;;;;;1.55;1.45;;;;;;;;;;5072355;28;20524;-57
2021/09/15 09:16:20;;;;;;;1.63;1.52;;;;;;;;;;5088364;28;20024;-57
2021/09/15 09:19:03;;;;;;;1.70;1.60;;;;;;;;;;5050624;28;20021;-56
2021/09/15 09:21:30;;;;;;;1.90;1.70;;;;;;;;;;5071053;28;20103;-55
2021/09/15 09:23:58;;;;;;;2.42;1.85;;;;;;;;;;5059945;28;20484;-57
2021/09/15 09:26:26;;;;;;;2.10;1.90;;;;;;;;;;5059495;28;20099;-55
2021/09/15 09:28:52;;;;;;;2.20;2.00;;;;;;;;;;5063917;28;20530;-56
2021/09/15 09:31:18;;;;;;;1.83;1.73;;;;;;;;;;5082904;28;20055;-56
2021/09/15 09:33:45;;;;;;;3.35;1.90;;;;;;;;;;5052740;28;20021;-57
2021/09/15 09:36:11;;;;;;;2.45;2.08;;;;;;;;;;5086437;28;20150;-56
2021/09/15 09:38:39;;;;;;;1.92;1.80;;;;;;;;;;5089275;28;20020;-55
2021/09/15 09:41:19;;;;;;;2.33;1.95;;;;;;;;;;5075313;28;20033;-56
2021/09/15 09:43:49;;;;;;;1.67;1.58;;;;;;;;;;5066302;28;20067;-56
2021/09/15 09:46:23;;;;;;;1.60;1.50;;;;;;;;;;5068741;28;20036;-56
2021/09/15 09:48:59;;;;;;;2.50;1.70;;;;;;;;;;5067703;28;20518;-57
2021/09/15 09:51:38;;;;;;;2.22;1.55;;;;;;;;;;5066606;28;20445;-58
2021/09/15 09:54:23;;;;;;;2.20;2.00;;;;;;;;;;5068125;28;20051;-57
2021/09/15 09:56:50;;;;;;;1.90;1.80;;;;;;;;;;5081626;28;20028;-57
2021/09/15 09:59:16;;;;;;;2.22;1.90;;;;;;;;;;5082093;28;20452;-55
2021/09/15 10:01:47;;;;;;;2.05;1.80;;;;;;;;;;5060420;28;20024;-57
2021/09/15 10:04:16;;;;;;;1.88;1.77;;;;;;;;;;5074464;28;20421;-56
2021/09/15 10:06:43;;;;;;;3.35;1.92;;;;;;;;;;5072973;28;20493;-57
2021/09/15 10:09:10;;;;;;;2.30;1.88;;;;;;;;;;5068856;28;20090;-57
2021/09/15 10:11:38;;;;;;;4.15;2.17;;;;;;;;;;5076023;28;20040;-56
2021/09/15 10:14:05;;;;;;;2.03;1.83;;;;;;;;;;5081864;28;20020;-57
2021/09/15 10:16:33;;;;;;;2.10;1.75;;;;;;;;;;5079942;28;20085;-56
2021/09/15 10:19:03;;;;;;;2.20;1.90;;;;;;;;;;5066307;28;20060;-56
2021/09/15 10:21:29;;;;;;;2.00;1.77;;;;;;;;;;5076456;28;20298;-56
2021/09/15 10:23:56;;;;;;;2.60;1.90;;;;;;;;;;5076528;28;20029;-56
2021/09/15 10:26:28;;;;;;;1.65;1.55;;;;;;;;;;5078529;28;20055;-57
2021/09/15 10:29:13;;;;;;;1.95;1.80;;;;;;;;;;5080638;28;20698;-56
2021/09/15 10:31:50;;;;;;;2.13;1.40;;;;;;;;;;5085303;28;20036;-56
2021/09/15 10:34:35;;;;;;;1.90;1.70;;;;;;;;;;5067755;28;20031;-57
2021/09/15 10:37:01;;;;;;;3.78;2.05;;;;;;;;;;5074898;28;20031;-56
2021/09/15 10:39:28;;;;;;;3.38;2.05;;;;;;;;;;5064829;28;20350;-53
2021/09/15 10:41:55;;;;;;;2.00;1.77;;;;;;;;;;5062447;28;20060;-55
2021/09/15 10:44:21;;;;;;;5.07;1.88;;;;;;;;;;5067258;28;20115;-53
2021/09/15 10:46:48;;;;;;;2.42;2.13;;;;;;;;;;5067008;28;20031;-57
2021/09/15 10:49:23;;;;;;;3.10;2.00;;;;;;;;;;5067339;28;20103;-57
2021/09/15 10:52:11;;;;;;;4.28;1.80;;;;;;;;;;5066531;28;20484;-57
2021/09/15 10:54:41;;;;;;;4.43;1.83;;;;;;;;;;5067438;28;20028;-57
2021/09/15 10:57:17;;;;;;;4.32;2.00;;;;;;;;;;5066604;28;20487;-56
2021/09/15 11:00:04;;;;;;;2.22;1.50;;;;;;;;;;5067032;28;20028;-56
2021/09/15 11:02:41;;;;;;;1.80;1.70;;;;;;;;;;5065851;28;20094;-55
2021/09/15 11:05:26;;;;;;;3.72;1.90;;;;;;;;;;5065664;28;20063;-57
2021/09/15 11:07:55;;;;;;;2.92;2.17;;;;;;;;;;5066163;28;20032;-54
2021/09/15 11:10:33;;;;;;;2.35;2.08;;;;;;;;;;5064135;28;20491;-54
2021/09/15 11:13:06;;;;;;;3.97;1.90;;;;;;;;;;5055434;28;20487;-56
2021/09/15 11:15:36;;;;;;;2.35;1.40;;;;;;;;;;5066022;28;20017;-57
2021/09/15 11:18:02;;;;;;;3.38;1.40;;;;;;;;;;5067172;28;20020;-58
2021/09/15 11:20:30;;;;;;;3.08;1.83;;;;;;;;;;5065029;28;20029;-55
2021/09/15 11:22:56;;;;;;;3.38;1.67;;;;;;;;;;5063091;28;20032;-57
2021/09/15 11:25:24;;;;;;;1.52;1.30;;;;;;;;;;5048851;28;20369;-57
2021/09/15 11:28:10;;;;;;;4.57;1.70;;;;;;;;;;5067228;28;20032;-57
2021/09/15 11:30:37;;;;;;;5.63;1.95;;;;;;;;;;5060222;28;20040;-57
2021/09/15 11:33:04;;;;;;;2.03;1.75;;;;;;;;;;5058927;28;20483;-57
2021/09/15 11:35:33;;;;;;;2.33;1.30;;;;;;;;;;5057584;28;20020;-57
2021/09/15 11:38:00;;;;;;;1.30;1.20;;;;;;;;;;5063724;28;20039;-57
2021/09/15 11:40:30;;;;;;;1.90;1.40;;;;;;;;;;5047278;28;20040;-58
2021/09/15 11:42:56;;;;;;;4.53;1.80;;;;;;;;;;5050650;28;20048;-57
2021/09/15 11:45:24;;;;;;;2.72;1.85;;;;;;;;;;5076475;28;20036;-58
2021/09/15 11:47:53;;;;;;;2.80;1.48;;;;;;;;;;5073884;28;20524;-58
2021/09/15 11:50:23;;;;;;;2.95;2.00;;;;;;;;;;5061879;28;20057;-57
2021/09/15 11:52:53;;;;;;;3.97;1.90;;;;;;;;;;5064393;28;20024;-56
2021/09/15 11:55:19;;;;;;;5.25;2.10;;;;;;;;;;5060034;28;20027;-58
2021/09/15 11:57:53;;;;;;;2.75;1.83;;;;;;;;;;5065402;28;20111;-56
2021/09/15 12:00:19;;;;;;;3.00;2.15;;;;;;;;;;5065746;28;20138;-57
2021/09/15 12:02:46;;;;;;;6.97;2.67;;;;;;;;;;5065717;28;20523;-58
2021/09/15 12:05:12;;;;;;;3.97;2.20;;;;;;;;;;5065296;28;20024;-58
2021/09/15 12:07:39;;;;;;;4.85;2.17;;;;;;;;;;5065858;28;20031;-58
2021/09/15 12:10:06;;;;;;;4.40;1.98;;;;;;;;;;5065974;28;20111;-57
2021/09/15 12:12:34;;;;;;;9.93;2.67;;;;;;;;;;5066144;28;20025;-56
2021/09/15 12:15:01;;;;;;;7.28;2.53;;;;;;;;;;5057836;28;20021;-57
2021/09/15 12:17:28;;;;;;;6.32;2.58;;;;;;;;;;5064704;28;20500;-58
2021/09/15 12:19:56;;;;;;;3.50;2.20;;;;;;;;;;5064440;28;20032;-59
2021/09/15 12:22:23;;;;;;;6.75;2.63;;;;;;;;;;5054132;28;20411;-58
2021/09/15 12:25:04;;;;;;;4.28;1.98;;;;;;;;;;5046033;28;20075;-59
2021/09/15 12:27:30;;;;;;;3.13;2.20;;;;;;;;;;5045685;28;20029;-59
2021/09/15 12:30:00;;;;;;;2.53;1.88;;;;;;;;;;5048469;28;20107;-58
2021/09/15 12:32:28;;;;;;;6.45;2.22;;;;;;;;;;5045753;28;20031;-58
2021/09/15 12:34:54;;;;;;;2.78;1.58;;;;;;;;;;5045869;28;20013;-58
2021/09/15 12:37:20;;;;;;;4.93;1.50;;;;;;;;;;5046080;28;20399;-58
2021/09/15 12:39:47;;;;;;;4.28;2.20;;;;;;;;;;5046247;28;20451;-58
2021/09/15 12:42:17;;;;;;;8.85;2.65;;;;;;;;;;5044339;28;20045;-59
2021/09/15 12:44:44;;;;;;;4.75;1.90;;;;;;;;;;5044184;28;20109;-58
2021/09/15 12:47:11;;;;;;;4.55;2.00;;;;;;;;;;5044413;28;20080;-59
2021/09/15 12:49:40;;;;;;;6.88;2.33;;;;;;;;;;5044041;28;20067;-58
2021/09/15 12:52:12;;;;;;;5.63;2.20;;;;;;;;;;5044149;28;20048;-59
2021/09/15 12:54:38;;;;;;;5.70;1.92;;;;;;;;;;5044308;28;20100;-59
2021/09/15 12:57:17;;;;;;;3.78;2.30;;;;;;;;;;5044841;28;20376;-59
2021/09/15 12:59:43;;;;;;;3.17;1.63;;;;;;;;;;5043913;28;20406;-59
2021/09/15 13:02:21;;;;;;;2.63;1.50;;;;;;;;;;5044017;28;20032;-58
2021/09/15 13:04:49;;;;;;;4.72;1.77;;;;;;;;;;5050966;28;20029;-58
2021/09/15 13:07:16;;;;;;;6.47;2.10;;;;;;;;;;5067692;28;20082;-58
2021/09/15 13:09:42;;;;;;;8.65;2.38;;;;;;;;;;5068666;28;20029;-58
2021/09/15 13:12:08;;;;;;;5.40;2.10;;;;;;;;;;5068253;28;20527;-59
2021/09/15 13:14:34;;;;;;;5.28;1.75;;;;;;;;;;5069532;28;20037;-59
2021/09/15 13:17:00;;;;;;;4.15;1.63;;;;;;;;;;5050544;28;20076;-59
2021/09/15 13:19:26;;;;;;;3.45;1.52;;;;;;;;;;5068892;28;20039;-59
2021/09/15 13:21:53;;;;;;;3.95;1.70;;;;;;;;;;5068569;28;20046;-59
2021/09/15 13:24:19;;;;;;;3.17;1.95;;;;;;;;;;5070599;28;20032;-58
2021/09/15 13:26:45;;;;;;;3.70;2.10;;;;;;;;;;5082877;28;20510;-59
2021/09/15 13:29:11;;;;;;;3.33;1.67;;;;;;;;;;5087711;28;20979;-59
2021/09/15 13:31:37;;;;;;;3.85;2.03;;;;;;;;;;5088150;28;20483;-58
2021/09/15 13:34:03;;;;;;;3.92;2.20;;;;;;;;;;5088822;28;20509;-59
2021/09/15 13:36:29;;;;;;;5.65;2.00;;;;;;;;;;5088470;28;20399;-58
2021/09/15 13:38:55;;;;;;;3.78;1.60;;;;;;;;;;5072697;28;20365;-57
2021/09/15 13:41:21;;;;;;;3.60;1.58;;;;;;;;;;5074696;28;20032;-57
2021/09/15 13:43:47;;;;;;;4.40;1.75;;;;;;;;;;5087033;28;20514;-57
2021/09/15 13:46:13;;;;;;;7.10;1.65;;;;;;;;;;5080163;28;20495;-57
2021/09/15 13:48:39;;;;;;;4.32;1.50;;;;;;;;;;5069016;28;20071;-53
2021/09/15 13:51:05;;;;;;;3.33;1.25;;;;;;;;;;5068750;28;20566;-56
2021/09/15 13:53:31;;;;;;;3.58;1.38;;;;;;;;;;5069563;28;20577;-56
2021/09/15 13:55:57;;;;;;;2.38;1.33;;;;;;;;;;5067414;28;20148;-57
2021/09/15 13:58:23;;;;;;;1.98;1.30;;;;;;;;;;5075412;28;20024;-57
2021/09/15 14:00:49;;;;;;;1.95;1.30;;;;;;;;;;5088404;28;20495;-55
2021/09/15 14:03:15;;;;;;;3.58;1.08;;;;;;;;;;5085373;28;20061;-57
2021/09/15 14:05:41;;;;;;;0.82;0.82;;;;;;;;;;5088061;28;20545;-57
2021/09/15 14:08:08;;;;;;;1.45;0.90;;;;;;;;;;5088628;28;20678;-57
2021/09/15 14:10:35;;;;;;;1.10;0.90;;;;;;;;;;5089370;28;20069;-56
2021/09/15 14:13:02;;;;;;;0.77;0.70;;;;;;;;;;5087584;28;20132;-57
2021/09/15 14:15:29;;;;;;;1.27;0.90;;;;;;;;;;5087024;28;20039;-55
2021/09/15 14:17:56;;;;;;;1.88;1.27;;;;;;;;;;5086356;28;20024;-57
2021/09/15 14:20:23;;;;;;;1.50;1.17;;;;;;;;;;5087218;28;20467;-57
2021/09/15 14:22:49;;;;;;;2.42;1.10;;;;;;;;;;5087209;28;20566;-56
2021/09/15 14:25:15;;;;;;;1.75;1.05;;;;;;;;;;5086749;28;20441;-57
2021/09/15 14:27:41;;;;;;;1.27;0.98;;;;;;;;;;5087172;28;20032;-57
2021/09/15 14:30:07;;;;;;;1.35;1.08;;;;;;;;;;5086361;28;20024;-57
2021/09/15 14:32:33;;;;;;;2.00;1.10;;;;;;;;;;5087552;28;20502;-57
2021/09/15 14:34:59;;;;;;;2.40;1.10;;;;;;;;;;5086705;28;20016;-56
2021/09/15 14:37:25;;;;;;;1.30;1.20;;;;;;;;;;5086843;28;20044;-56
2021/09/15 14:39:52;;;;;;;2.67;1.30;;;;;;;;;;5086850;28;20052;-57
2021/09/15 14:42:18;;;;;;;1.48;1.05;;;;;;;;;;5086758;28;20109;-56
2021/09/15 14:44:44;;;;;;;3.25;1.58;;;;;;;;;;5086417;28;20028;-56
2021/09/15 14:47:10;;;;;;;1.73;1.42;;;;;;;;;;5086243;28;20032;-57
2021/09/15 14:49:36;;;;;;;1.77;1.30;;;;;;;;;;5086339;28;20051;-55
2021/09/15 14:52:03;;;;;;;3.05;1.30;;;;;;;;;;5086784;28;20052;-57